sensor_id;sensor_type;location;lat;lon;timestamp;pressure;altitude;pressure_sealevel;temperature;humidity
71239;BME280;61342;51.442;7.370;2023-04-26T00:00:19;100301.19;;;6.45;78.77
71239;BME280;61342;51.442;7.370;2023-04-26T00:01:19;100292.88;;;6.41;78.57
71239;BME280;61342;51.442;7.370;2023-04-26T00:02:21;100299.91;;;6.46;78.59
71239;BME280;61342;51.442;7.370;2023-04-26T00:03:21;100297.28;;;6.42;78.67
71239;BME280;61342;51.442;7.370;2023-04-26T00:04:23;100300.44;;;6.44;78.58
71239;BME280;61342;51.442;7.370;2023-04-26T00:05:23;100298.59;;;6.41;78.77
71239;BME280;61342;51.442;7.370;2023-04-26T00:06:24;100296.19;;;6.40;78.52
71239;BME280;61342;51.442;7.370;2023-04-26T00:07:26;100311.84;;;6.44;78.50
71239;BME280;61342;51.442;7.370;2023-04-26T00:08:27;100308.19;;;6.44;78.74
71239;BME280;61342;51.442;7.370;2023-04-26T00:09:28;100309.50;;;6.43;78.80
71239;BME280;61342;51.442;7.370;2023-04-26T00:10:29;100309.50;;;6.43;78.68
71239;BME280;61342;51.442;7.370;2023-04-26T00:11:29;100301.66;;;6.38;78.92
71239;BME280;61342;51.442;7.370;2023-04-26T00:12:30;100311.56;;;6.42;78.89
71239;BME280;61342;51.442;7.370;2023-04-26T00:13:30;100308.13;;;6.38;78.86
71239;BME280;61342;51.442;7.370;2023-04-26T00:14:31;100304.00;;;6.39;78.97
71239;BME280;61342;51.442;7.370;2023-04-26T00:15:31;100308.44;;;6.40;78.89
71239;BME280;61342;51.442;7.370;2023-04-26T00:16:31;100306.06;;;6.39;79.03
71239;BME280;61342;51.442;7.370;2023-04-26T00:17:32;100301.13;;;6.39;78.88
71239;BME280;61342;51.442;7.370;2023-04-26T00:18:32;100316.19;;;6.40;79.13
71239;BME280;61342;51.442;7.370;2023-04-26T00:19:33;100298.78;;;6.38;78.85
71239;BME280;61342;51.442;7.370;2023-04-26T00:20:34;100311.78;;;6.39;79.06
71239;BME280;61342;51.442;7.370;2023-04-26T00:21:34;100308.63;;;6.37;78.94
71239;BME280;61342;51.442;7.370;2023-04-26T00:22:34;100298.50;;;6.36;79.12
71239;BME280;61342;51.442;7.370;2023-04-26T00:23:35;100312.00;;;6.35;79.16
71239;BME280;61342;51.442;7.370;2023-04-26T00:24:35;100296.94;;;6.35;79.20
71239;BME280;61342;51.442;7.370;2023-04-26T00:25:36;100305.78;;;6.37;79.30
71239;BME280;61342;51.442;7.370;2023-04-26T00:26:36;100296.38;;;6.31;79.12
71239;BME280;61342;51.442;7.370;2023-04-26T00:27:36;100314.84;;;6.35;79.30
71239;BME280;61342;51.442;7.370;2023-04-26T00:28:37;100300.50;;;6.30;79.21
71239;BME280;61342;51.442;7.370;2023-04-26T00:29:37;100296.66;;;6.33;79.36
71239;BME280;61342;51.442;7.370;2023-04-26T00:30:37;100309.63;;;6.34;79.51
71239;BME280;61342;51.442;7.370;2023-04-26T00:31:41;100301.56;;;6.32;79.24
71239;BME280;61342;51.442;7.370;2023-04-26T00:32:41;100288.53;;;6.26;79.66
71239;BME280;61342;51.442;7.370;2023-04-26T00:33:42;100297.91;;;6.32;79.43
71239;BME280;61342;51.442;7.370;2023-04-26T00:34:43;100306.22;;;6.30;79.32
71239;BME280;61342;51.442;7.370;2023-04-26T00:35:43;100295.56;;;6.30;79.31
71239;BME280;61342;51.442;7.370;2023-04-26T00:36:43;100296.06;;;6.29;79.45
71239;BME280;61342;51.442;7.370;2023-04-26T00:37:45;100273.31;;;6.15;79.27
71239;BME280;61342;51.442;7.370;2023-04-26T00:38:45;100293.41;;;6.26;79.32
71239;BME280;61342;51.442;7.370;2023-04-26T00:39:46;100295.22;;;6.23;79.74
71239;BME280;61342;51.442;7.370;2023-04-26T00:40:46;100296.00;;;6.24;79.57
71239;BME280;61342;51.442;7.370;2023-04-26T00:41:47;100289.53;;;6.23;79.50
71239;BME280;61342;51.442;7.370;2023-04-26T00:42:47;100291.06;;;6.24;79.61
71239;BME280;61342;51.442;7.370;2023-04-26T00:43:48;100296.50;;;6.22;79.50
71239;BME280;61342;51.442;7.370;2023-04-26T00:44:48;100293.66;;;6.22;79.83
71239;BME280;61342;51.442;7.370;2023-04-26T00:45:50;100287.16;;;6.22;79.78
71239;BME280;61342;51.442;7.370;2023-04-26T00:46:52;100288.44;;;6.21;79.79
71239;BME280;61342;51.442;7.370;2023-04-26T00:47:52;100293.09;;;6.18;79.87
71239;BME280;61342;51.442;7.370;2023-04-26T00:48:53;100295.63;;;6.16;79.67
71239;BME280;61342;51.442;7.370;2023-04-26T00:49:53;100294.38;;;6.17;79.74
71239;BME280;61342;51.442;7.370;2023-04-26T00:50:54;100292.78;;;6.16;79.90
71239;BME280;61342;51.442;7.370;2023-04-26T00:51:55;100290.44;;;6.15;80.05
71239;BME280;61342;51.442;7.370;2023-04-26T00:52:56;100289.66;;;6.14;79.83
71239;BME280;61342;51.442;7.370;2023-04-26T00:53:58;100294.56;;;6.14;79.97
71239;BME280;61342;51.442;7.370;2023-04-26T00:54:59;100293.50;;;6.11;79.97
71239;BME280;61342;51.442;7.370;2023-04-26T00:55:59;100300.78;;;6.12;80.12
71239;BME280;61342;51.442;7.370;2023-04-26T00:57:01;100297.66;;;6.10;80.42
71239;BME280;61342;51.442;7.370;2023-04-26T00:58:01;100297.66;;;6.10;80.34
71239;BME280;61342;51.442;7.370;2023-04-26T00:59:02;100298.63;;;6.07;80.41
71239;BME280;61342;51.442;7.370;2023-04-26T01:00:03;100288.00;;;6.08;80.39
71239;BME280;61342;51.442;7.370;2023-04-26T01:01:03;100279.97;;;6.06;80.61
71239;BME280;61342;51.442;7.370;2023-04-26T01:02:04;100284.88;;;6.06;80.55
71239;BME280;61342;51.442;7.370;2023-04-26T01:03:05;100284.09;;;6.05;80.45
71239;BME280;61342;51.442;7.370;2023-04-26T01:04:05;100278.88;;;6.04;80.55
71239;BME280;61342;51.442;7.370;2023-04-26T01:05:06;100283.78;;;6.03;80.50
71239;BME280;61342;51.442;7.370;2023-04-26T01:06:06;100289.03;;;6.05;80.79
71239;BME280;61342;51.442;7.370;2023-04-26T01:07:07;100286.38;;;6.01;80.48
71239;BME280;61342;51.442;7.370;2023-04-26T01:08:07;100290.50;;;6.00;80.59
71239;BME280;61342;51.442;7.370;2023-04-26T01:09:08;100276.47;;;5.97;80.43
71239;BME280;61342;51.442;7.370;2023-04-26T01:10:10;100288.66;;;5.97;80.87
71239;BME280;61342;51.442;7.370;2023-04-26T01:11:11;100287.06;;;5.96;81.00
71239;BME280;61342;51.442;7.370;2023-04-26T01:12:12;100292.00;;;5.96;80.82
71239;BME280;61342;51.442;7.370;2023-04-26T01:13:13;100289.66;;;5.94;80.86
71239;BME280;61342;51.442;7.370;2023-04-26T01:14:14;100286.50;;;5.92;81.06
71239;BME280;61342;51.442;7.370;2023-04-26T01:15:15;100278.44;;;5.91;81.24
71239;BME280;61342;51.442;7.370;2023-04-26T01:16:17;100279.66;;;5.84;81.13
71239;BME280;61342;51.442;7.370;2023-04-26T01:17:18;100287.19;;;5.87;81.25
71239;BME280;61342;51.442;7.370;2023-04-26T01:18:19;100289.28;;;5.87;81.15
71239;BME280;61342;51.442;7.370;2023-04-26T01:19:19;100285.84;;;5.83;81.62
71239;BME280;61342;51.442;7.370;2023-04-26T01:20:20;100291.25;;;5.81;81.38
71239;BME280;61342;51.442;7.370;2023-04-26T01:21:24;100282.41;;;5.79;81.50
71239;BME280;61342;51.442;7.370;2023-04-26T01:22:24;100289.97;;;5.82;81.57
71239;BME280;61342;51.442;7.370;2023-04-26T01:23:25;100286.06;;;5.79;81.36
71239;BME280;61342;51.442;7.370;2023-04-26T01:24:25;100292.06;;;5.81;81.61
71239;BME280;61342;51.442;7.370;2023-04-26T01:25:25;100290.47;;;5.80;81.66
71239;BME280;61342;51.442;7.370;2023-04-26T01:26:26;100288.91;;;5.79;81.55
71239;BME280;61342;51.442;7.370;2023-04-26T01:27:26;100281.84;;;5.75;81.64
71239;BME280;61342;51.442;7.370;2023-04-26T01:28:27;100298.75;;;5.78;81.84
71239;BME280;61342;51.442;7.370;2023-04-26T01:29:27;100297.19;;;5.77;81.68
71239;BME280;61342;51.442;7.370;2023-04-26T01:30:28;100282.00;;;5.71;81.94
71239;BME280;61342;51.442;7.370;2023-04-26T01:31:28;100276.94;;;5.61;82.04
71239;BME280;61342;51.442;7.370;2023-04-26T01:32:29;100295.00;;;5.72;81.96
71239;BME280;61342;51.442;7.370;2023-04-26T01:33:29;100297.53;;;5.70;81.92
71239;BME280;61342;51.442;7.370;2023-04-26T01:34:30;100307.41;;;5.70;81.93
71239;BME280;61342;51.442;7.370;2023-04-26T01:35:32;100295.69;;;5.68;82.30
71239;BME280;61342;51.442;7.370;2023-04-26T01:36:32;100303.25;;;5.70;82.25
71239;BME280;61342;51.442;7.370;2023-04-26T01:37:33;100302.97;;;5.69;82.20
71239;BME280;61342;51.442;7.370;2023-04-26T01:38:33;100302.19;;;5.68;82.22
71239;BME280;61342;51.442;7.370;2023-04-26T01:39:33;100309.94;;;5.68;82.18
71239;BME280;61342;51.442;7.370;2023-04-26T01:40:35;100304.25;;;5.68;82.50
71239;BME280;61342;51.442;7.370;2023-04-26T01:41:36;100299.03;;;5.66;82.26
71239;BME280;61342;51.442;7.370;2023-04-26T01:42:36;100300.81;;;5.64;82.33
71239;BME280;61342;51.442;7.370;2023-04-26T01:43:36;100300.53;;;5.62;82.32
71239;BME280;61342;51.442;7.370;2023-04-26T01:44:37;100306.81;;;5.66;82.49
71239;BME280;61342;51.442;7.370;2023-04-26T01:45:37;100300.81;;;5.64;82.34
71239;BME280;61342;51.442;7.370;2023-04-26T01:46:37;100306.53;;;5.64;82.70
71239;BME280;61342;51.442;7.370;2023-04-26T01:47:38;100302.09;;;5.63;82.70
71239;BME280;61342;51.442;7.370;2023-04-26T01:48:38;100310.94;;;5.65;82.61
71239;BME280;61342;51.442;7.370;2023-04-26T01:49:38;100298.19;;;5.60;82.78
71239;BME280;61342;51.442;7.370;2023-04-26T01:50:40;100287.25;;;5.59;82.63
71239;BME280;61342;51.442;7.370;2023-04-26T01:51:41;100297.38;;;5.60;82.86
71239;BME280;61342;51.442;7.370;2023-04-26T01:52:41;100299.47;;;5.59;82.93
71239;BME280;61342;51.442;7.370;2023-04-26T01:53:41;100303.88;;;5.60;82.90
71239;BME280;61342;51.442;7.370;2023-04-26T01:54:42;100296.63;;;5.59;82.73
71239;BME280;61342;51.442;7.370;2023-04-26T01:55:42;100292.38;;;5.55;82.69
71239;BME280;61342;51.442;7.370;2023-04-26T01:56:42;100297.38;;;5.60;82.95
71239;BME280;61342;51.442;7.370;2023-04-26T01:57:43;100295.22;;;5.55;83.04
71239;BME280;61342;51.442;7.370;2023-04-26T01:58:43;100286.97;;;5.57;82.89
71239;BME280;61342;51.442;7.370;2023-04-26T01:59:44;100296.31;;;5.57;82.92
71239;BME280;61342;51.442;7.370;2023-04-26T02:00:44;100292.69;;;5.57;82.87
71239;BME280;61342;51.442;7.370;2023-04-26T02:01:45;100295.22;;;5.55;83.15
71239;BME280;61342;51.442;7.370;2023-04-26T02:02:45;100305.84;;;5.54;82.98
71239;BME280;61342;51.442;7.370;2023-04-26T02:03:46;100294.66;;;5.51;82.93
71239;BME280;61342;51.442;7.370;2023-04-26T02:04:48;100304.28;;;5.53;82.99
71239;BME280;61342;51.442;7.370;2023-04-26T02:05:48;100294.06;;;5.47;83.13
71239;BME280;61342;51.442;7.370;2023-04-26T02:06:48;100294.88;;;5.47;83.01
71239;BME280;61342;51.442;7.370;2023-04-26T02:07:49;100292.50;;;5.46;82.71
71239;BME280;61342;51.442;7.370;2023-04-26T02:08:51;100295.66;;;5.48;83.20
71239;BME280;61342;51.442;7.370;2023-04-26T02:09:52;100297.41;;;5.45;83.16
71239;BME280;61342;51.442;7.370;2023-04-26T02:10:52;100299.50;;;5.45;83.22
71239;BME280;61342;51.442;7.370;2023-04-26T02:11:53;100302.03;;;5.43;83.20
71239;BME280;61342;51.442;7.370;2023-04-26T02:12:53;100300.00;;;5.43;83.38
71239;BME280;61342;51.442;7.370;2023-04-26T02:13:53;100301.75;;;5.41;83.22
71239;BME280;61342;51.442;7.370;2023-04-26T02:14:54;100307.47;;;5.41;83.38
71239;BME280;61342;51.442;7.370;2023-04-26T02:15:54;100296.56;;;5.39;83.74
71239;BME280;61342;51.442;7.370;2023-04-26T02:16:55;100298.31;;;5.37;83.83
71239;BME280;61342;51.442;7.370;2023-04-26T02:17:56;100299.09;;;5.37;83.73
71239;BME280;61342;51.442;7.370;2023-04-26T02:18:56;100306.06;;;5.36;83.91
71239;BME280;61342;51.442;7.370;2023-04-26T02:19:58;100296.75;;;5.36;83.61
71239;BME280;61342;51.442;7.370;2023-04-26T02:20:58;100292.31;;;5.35;83.68
71239;BME280;61342;51.442;7.370;2023-04-26T02:21:59;100302.44;;;5.36;83.66
71239;BME280;61342;51.442;7.370;2023-04-26T02:22:59;100302.16;;;5.34;83.65
71239;BME280;61342;51.442;7.370;2023-04-26T02:23:59;100303.72;;;5.35;83.78
71239;BME280;61342;51.442;7.370;2023-04-26T02:25:00;100294.31;;;5.29;84.10
71239;BME280;61342;51.442;7.370;2023-04-26T02:26:00;100297.75;;;5.33;84.04
71239;BME280;61342;51.442;7.370;2023-04-26T02:27:00;100291.06;;;5.21;84.15
71239;BME280;61342;51.442;7.370;2023-04-26T02:28:03;100293.50;;;5.28;84.13
71239;BME280;61342;51.442;7.370;2023-04-26T02:29:04;100306.78;;;5.31;84.35
71239;BME280;61342;51.442;7.370;2023-04-26T02:30:05;100301.28;;;5.28;84.10
71239;BME280;61342;51.442;7.370;2023-04-26T02:31:06;100295.28;;;5.26;84.05
71239;BME280;61342;51.442;7.370;2023-04-26T02:32:07;100301.28;;;5.28;84.27
71239;BME280;61342;51.442;7.370;2023-04-26T02:33:07;100296.00;;;5.21;84.20
71239;BME280;61342;51.442;7.370;2023-04-26T02:34:08;100300.69;;;5.24;84.34
71239;BME280;61342;51.442;7.370;2023-04-26T02:35:09;100296.47;;;5.19;84.20
71239;BME280;61342;51.442;7.370;2023-04-26T02:36:09;100306.09;;;5.22;84.27
71239;BME280;61342;51.442;7.370;2023-04-26T02:37:10;100312.00;;;5.18;84.35
71239;BME280;61342;51.442;7.370;2023-04-26T02:38:10;100300.59;;;5.18;84.20
71239;BME280;61342;51.442;7.370;2023-04-26T02:39:10;100300.28;;;5.16;84.41
71239;BME280;61342;51.442;7.370;2023-04-26T02:40:11;100298.44;;;5.13;84.40
71239;BME280;61342;51.442;7.370;2023-04-26T02:41:12;100301.78;;;5.12;84.63
71239;BME280;61342;51.442;7.370;2023-04-26T02:42:12;100301.28;;;5.13;84.40
71239;BME280;61342;51.442;7.370;2023-04-26T02:43:12;100307.47;;;5.12;84.46
71239;BME280;61342;51.442;7.370;2023-04-26T02:44:13;100304.81;;;5.09;84.50
71239;BME280;61342;51.442;7.370;2023-04-26T02:45:13;100302.28;;;5.11;84.56
71239;BME280;61342;51.442;7.370;2023-04-26T02:46:14;100300.41;;;5.08;84.70
71239;BME280;61342;51.442;7.370;2023-04-26T02:47:14;100306.91;;;5.08;84.62
71239;BME280;61342;51.442;7.370;2023-04-26T02:48:15;100296.50;;;5.05;84.88
71239;BME280;61342;51.442;7.370;2023-04-26T02:49:16;100299.81;;;5.04;84.96
71239;BME280;61342;51.442;7.370;2023-04-26T02:50:16;100288.31;;;4.98;84.87
71239;BME280;61342;51.442;7.370;2023-04-26T02:51:16;100300.78;;;5.01;84.86
71239;BME280;61342;51.442;7.370;2023-04-26T02:52:17;100295.91;;;5.01;85.26
71239;BME280;61342;51.442;7.370;2023-04-26T02:53:17;100293.06;;;5.01;85.17
71239;BME280;61342;51.442;7.370;2023-04-26T02:54:17;100297.66;;;4.99;85.29
71239;BME280;61342;51.442;7.370;2023-04-26T02:55:18;100303.84;;;4.97;85.31
71239;BME280;61342;51.442;7.370;2023-04-26T02:56:18;100290.38;;;4.98;85.56
71239;BME280;61342;51.442;7.370;2023-04-26T02:57:18;100283.63;;;4.95;85.39
71239;BME280;61342;51.442;7.370;2023-04-26T02:58:19;100299.72;;;4.98;85.20
71239;BME280;61342;51.442;7.370;2023-04-26T02:59:19;100295.00;;;4.95;85.37
71239;BME280;61342;51.442;7.370;2023-04-26T03:00:20;100290.09;;;4.96;85.32
71239;BME280;61342;51.442;7.370;2023-04-26T03:01:21;100292.16;;;4.95;85.35
71239;BME280;61342;51.442;7.370;2023-04-26T03:02:21;100293.91;;;4.93;85.49
71239;BME280;61342;51.442;7.370;2023-04-26T03:03:21;100290.56;;;4.94;85.37
71239;BME280;61342;51.442;7.370;2023-04-26T03:04:22;100291.56;;;4.91;85.51
71239;BME280;61342;51.442;7.370;2023-04-26T03:05:22;100297.56;;;4.93;85.56
71239;BME280;61342;51.442;7.370;2023-04-26T03:06:22;100295.69;;;4.90;85.27
71239;BME280;61342;51.442;7.370;2023-04-26T03:07:23;100287.63;;;4.89;85.64
71239;BME280;61342;51.442;7.370;2023-04-26T03:08:23;100301.69;;;4.92;85.63
71239;BME280;61342;51.442;7.370;2023-04-26T03:09:24;100293.63;;;4.91;85.73
71239;BME280;61342;51.442;7.370;2023-04-26T03:10:24;100299.81;;;4.89;85.80
71239;BME280;61342;51.442;7.370;2023-04-26T03:11:25;100298.53;;;4.90;85.87
71239;BME280;61342;51.442;7.370;2023-04-26T03:12:25;100294.13;;;4.89;85.94
71239;BME280;61342;51.442;7.370;2023-04-26T03:13:26;100292.56;;;4.88;86.14
71239;BME280;61342;51.442;7.370;2023-04-26T03:14:26;100287.22;;;4.81;85.82
71239;BME280;61342;51.442;7.370;2023-04-26T03:15:26;100297.44;;;4.88;85.84
71239;BME280;61342;51.442;7.370;2023-04-26T03:16:27;100292.56;;;4.88;85.95
71239;BME280;61342;51.442;7.370;2023-04-26T03:17:27;100294.91;;;4.90;86.00
71239;BME280;61342;51.442;7.370;2023-04-26T03:18:27;100295.09;;;4.86;86.02
71239;BME280;61342;51.442;7.370;2023-04-26T03:19:28;100288.63;;;4.86;86.01
71239;BME280;61342;51.442;7.370;2023-04-26T03:20:28;100291.47;;;4.86;85.89
71239;BME280;61342;51.442;7.370;2023-04-26T03:21:29;100291.75;;;4.88;86.08
71239;BME280;61342;51.442;7.370;2023-04-26T03:22:29;100291.97;;;4.84;86.16
71239;BME280;61342;51.442;7.370;2023-04-26T03:23:29;100292.25;;;4.86;85.94
71239;BME280;61342;51.442;7.370;2023-04-26T03:24:30;100295.09;;;4.86;86.10
71239;BME280;61342;51.442;7.370;2023-04-26T03:25:32;100272.91;;;4.76;86.25
71239;BME280;61342;51.442;7.370;2023-04-26T03:26:32;100296.38;;;4.85;86.03
71239;BME280;61342;51.442;7.370;2023-04-26T03:27:33;100292.75;;;4.85;86.33
71239;BME280;61342;51.442;7.370;2023-04-26T03:28:33;100286.56;;;4.86;86.28
71239;BME280;61342;51.442;7.370;2023-04-26T03:29:34;100286.75;;;4.83;86.11
71239;BME280;61342;51.442;7.370;2023-04-26T03:30:34;100287.53;;;4.83;86.31
71239;BME280;61342;51.442;7.370;2023-04-26T03:31:34;100281.84;;;4.83;86.50
71239;BME280;61342;51.442;7.370;2023-04-26T03:32:35;100297.66;;;4.84;86.35
71239;BME280;61342;51.442;7.370;2023-04-26T03:33:35;100291.97;;;4.84;86.47
71239;BME280;61342;51.442;7.370;2023-04-26T03:34:36;100284.69;;;4.83;86.50
71239;BME280;61342;51.442;7.370;2023-04-26T03:35:36;100280.00;;;4.80;86.57
71239;BME280;61342;51.442;7.370;2023-04-26T03:36:36;100291.97;;;4.84;86.28
71239;BME280;61342;51.442;7.370;2023-04-26T03:37:37;100267.59;;;4.69;86.47
71239;BME280;61342;51.442;7.370;2023-04-26T03:38:40;100281.25;;;4.79;86.56
71239;BME280;61342;51.442;7.370;2023-04-26T03:39:42;100279.19;;;4.80;86.75
71239;BME280;61342;51.442;7.370;2023-04-26T03:40:42;100283.50;;;4.75;86.60
71239;BME280;61342;51.442;7.370;2023-04-26T03:41:42;100281.25;;;4.79;86.67
71239;BME280;61342;51.442;7.370;2023-04-26T03:42:43;100281.53;;;4.81;86.64
71239;BME280;61342;51.442;7.370;2023-04-26T03:43:43;100280.47;;;4.79;86.69
71239;BME280;61342;51.442;7.370;2023-04-26T03:44:43;100284.59;;;4.78;86.91
71239;BME280;61342;51.442;7.370;2023-04-26T03:45:46;100289.78;;;4.79;86.93
71239;BME280;61342;51.442;7.370;2023-04-26T03:46:47;100281.44;;;4.76;86.76
71239;BME280;61342;51.442;7.370;2023-04-26T03:47:48;100280.66;;;4.75;86.83
71239;BME280;61342;51.442;7.370;2023-04-26T03:48:48;100279.41;;;4.76;86.62
71239;BME280;61342;51.442;7.370;2023-04-26T03:49:48;100280.94;;;4.77;86.99
71239;BME280;61342;51.442;7.370;2023-04-26T03:50:49;100277.22;;;4.71;86.96
71239;BME280;61342;51.442;7.370;2023-04-26T03:51:49;100282.53;;;4.78;87.08
71239;BME280;61342;51.442;7.370;2023-04-26T03:52:50;100264.47;;;4.67;86.94
71239;BME280;61342;51.442;7.370;2023-04-26T03:53:50;100276.06;;;4.78;87.15
71239;BME280;61342;51.442;7.370;2023-04-26T03:54:51;100289.78;;;4.79;87.04
71239;BME280;61342;51.442;7.370;2023-04-26T03:55:51;100280.16;;;4.77;87.29
71239;BME280;61342;51.442;7.370;2023-04-26T03:56:51;100280.47;;;4.79;87.19
71239;BME280;61342;51.442;7.370;2023-04-26T03:57:52;100281.75;;;4.78;87.33
71239;BME280;61342;51.442;7.370;2023-04-26T03:58:53;100278.09;;;4.77;87.43
71239;BME280;61342;51.442;7.370;2023-04-26T03:59:53;100281.75;;;4.78;87.24
71239;BME280;61342;51.442;7.370;2023-04-26T04:00:56;100285.09;;;4.76;87.15
71239;BME280;61342;51.442;7.370;2023-04-26T04:02:00;100285.09;;;4.76;87.30
71239;BME280;61342;51.442;7.370;2023-04-26T04:03:00;100284.28;;;4.76;87.66
71239;BME280;61342;51.442;7.370;2023-04-26T04:04:00;100278.59;;;4.76;87.66
71239;BME280;61342;51.442;7.370;2023-04-26T04:05:01;100274.88;;;4.70;87.57
71239;BME280;61342;51.442;7.370;2023-04-26T04:06:01;100275.47;;;4.74;87.57
71239;BME280;61342;51.442;7.370;2023-04-26T04:07:02;100279.41;;;4.76;87.80
71239;BME280;61342;51.442;7.370;2023-04-26T04:08:02;100276.53;;;4.76;87.51
71239;BME280;61342;51.442;7.370;2023-04-26T04:09:03;100280.16;;;4.77;87.46
71239;BME280;61342;51.442;7.370;2023-04-26T04:10:05;100274.47;;;4.77;87.44
71239;BME280;61342;51.442;7.370;2023-04-26T04:11:06;100276.25;;;4.74;87.67
71239;BME280;61342;51.442;7.370;2023-04-26T04:12:06;100273.13;;;4.72;87.79
71239;BME280;61342;51.442;7.370;2023-04-26T04:13:07;100269.94;;;4.70;87.66
71239;BME280;61342;51.442;7.370;2023-04-26T04:14:07;100275.97;;;4.72;87.97
71239;BME280;61342;51.442;7.370;2023-04-26T04:15:08;100274.66;;;4.73;87.63
71239;BME280;61342;51.442;7.370;2023-04-26T04:16:09;100269.94;;;4.70;87.82
71239;BME280;61342;51.442;7.370;2023-04-26T04:17:09;100280.06;;;4.71;87.85
71239;BME280;61342;51.442;7.370;2023-04-26T04:18:10;100278.22;;;4.68;88.03
71239;BME280;61342;51.442;7.370;2023-04-26T04:19:11;100270.34;;;4.63;87.91
71239;BME280;61342;51.442;7.370;2023-04-26T04:20:11;100279.75;;;4.69;88.29
71239;BME280;61342;51.442;7.370;2023-04-26T04:21:12;100283.09;;;4.68;87.98
71239;BME280;61342;51.442;7.370;2023-04-26T04:22:12;100281.25;;;4.65;88.07
71239;BME280;61342;51.442;7.370;2023-04-26T04:23:13;100291.63;;;4.68;87.88
71239;BME280;61342;51.442;7.370;2023-04-26T04:24:13;100282.00;;;4.65;88.30
71239;BME280;61342;51.442;7.370;2023-04-26T04:25:13;100291.34;;;4.66;88.14
71239;BME280;61342;51.442;7.370;2023-04-26T04:26:14;100290.88;;;4.67;88.42
71239;BME280;61342;51.442;7.370;2023-04-26T04:27:15;100278.56;;;4.61;88.33
71239;BME280;61342;51.442;7.370;2023-04-26T04:28:15;100284.09;;;4.65;88.34
71239;BME280;61342;51.442;7.370;2023-04-26T04:29:16;100289.78;;;4.65;88.51
71239;BME280;61342;51.442;7.370;2023-04-26T04:30:16;100292.13;;;4.66;88.39
71239;BME280;61342;51.442;7.370;2023-04-26T04:31:16;100281.72;;;4.63;88.40
71239;BME280;61342;51.442;7.370;2023-04-26T04:32:17;100285.66;;;4.66;88.69
71239;BME280;61342;51.442;7.370;2023-04-26T04:33:17;100292.13;;;4.66;88.65
71239;BME280;61342;51.442;7.370;2023-04-26T04:34:18;100284.59;;;4.63;88.43
71239;BME280;61342;51.442;7.370;2023-04-26T04:35:18;100288.50;;;4.66;88.83
71239;BME280;61342;51.442;7.370;2023-04-26T04:36:19;100291.06;;;4.64;88.60
71239;BME280;61342;51.442;7.370;2023-04-26T04:37:19;100290.56;;;4.65;88.60
71239;BME280;61342;51.442;7.370;2023-04-26T04:38:20;100285.84;;;4.62;88.77
71239;BME280;61342;51.442;7.370;2023-04-26T04:39:20;100291.53;;;4.62;88.58
71239;BME280;61342;51.442;7.370;2023-04-26T04:40:21;100291.34;;;4.66;88.72
71239;BME280;61342;51.442;7.370;2023-04-26T04:41:22;100295.47;;;4.65;88.84
71239;BME280;61342;51.442;7.370;2023-04-26T04:42:22;100299.09;;;4.65;88.80
71239;BME280;61342;51.442;7.370;2023-04-26T04:43:23;100292.63;;;4.65;88.86
71239;BME280;61342;51.442;7.370;2023-04-26T04:44:23;100295.97;;;4.63;88.90
71239;BME280;61342;51.442;7.370;2023-04-26T04:45:25;100305.09;;;4.67;89.05
71239;BME280;61342;51.442;7.370;2023-04-26T04:46:26;100296.75;;;4.64;89.00
71239;BME280;61342;51.442;7.370;2023-04-26T04:47:26;100298.63;;;4.67;88.88
71239;BME280;61342;51.442;7.370;2023-04-26T04:48:27;100293.41;;;4.65;89.03
71239;BME280;61342;51.442;7.370;2023-04-26T04:49:27;100301.94;;;4.65;88.81
71239;BME280;61342;51.442;7.370;2023-04-26T04:50:28;100302.75;;;4.66;89.16
71239;BME280;61342;51.442;7.370;2023-04-26T04:51:28;100287.59;;;4.60;88.97
71239;BME280;61342;51.442;7.370;2023-04-26T04:52:28;100304.78;;;4.65;89.20
71239;BME280;61342;51.442;7.370;2023-04-26T04:53:29;100300.38;;;4.64;89.14
71239;BME280;61342;51.442;7.370;2023-04-26T04:54:29;100307.16;;;4.67;89.16
71239;BME280;61342;51.442;7.370;2023-04-26T04:55:30;100305.09;;;4.67;88.83
71239;BME280;61342;51.442;7.370;2023-04-26T04:56:30;100296.25;;;4.65;89.36
71239;BME280;61342;51.442;7.370;2023-04-26T04:57:30;100288.28;;;4.55;89.34
71239;BME280;61342;51.442;7.370;2023-04-26T04:58:31;100303.25;;;4.64;89.13
71239;BME280;61342;51.442;7.370;2023-04-26T04:59:31;100291.13;;;4.55;89.16
71239;BME280;61342;51.442;7.370;2023-04-26T05:00:32;100317.25;;;4.68;89.44
71239;BME280;61342;51.442;7.370;2023-04-26T05:01:33;100300.66;;;4.66;89.59
71239;BME280;61342;51.442;7.370;2023-04-26T05:02:34;100297.81;;;4.66;89.71
71239;BME280;61342;51.442;7.370;2023-04-26T05:03:35;100307.44;;;4.69;89.25
71239;BME280;61342;51.442;7.370;2023-04-26T05:04:36;100303.03;;;4.68;89.19
71239;BME280;61342;51.442;7.370;2023-04-26T05:05:36;100306.97;;;4.70;89.27
71239;BME280;61342;51.442;7.370;2023-04-26T05:06:37;100306.97;;;4.70;89.23
71239;BME280;61342;51.442;7.370;2023-04-26T05:07:37;100304.31;;;4.67;89.47
71239;BME280;61342;51.442;7.370;2023-04-26T05:08:38;100315.81;;;4.72;89.31
71239;BME280;61342;51.442;7.370;2023-04-26T05:09:38;100311.38;;;4.71;89.40
71239;BME280;61342;51.442;7.370;2023-04-26T05:10:38;100314.72;;;4.70;89.48
71239;BME280;61342;51.442;7.370;2023-04-26T05:11:38;100316.31;;;4.71;89.51
71239;BME280;61342;51.442;7.370;2023-04-26T05:12:39;100308.53;;;4.71;89.26
71239;BME280;61342;51.442;7.370;2023-04-26T05:13:39;100316.09;;;4.74;89.33
71239;BME280;61342;51.442;7.370;2023-04-26T05:14:40;100314.81;;;4.75;89.76
71239;BME280;61342;51.442;7.370;2023-04-26T05:15:40;100318.75;;;4.78;89.66
71239;BME280;61342;51.442;7.370;2023-04-26T05:16:40;100310.88;;;4.73;89.65
71239;BME280;61342;51.442;7.370;2023-04-26T05:17:41;100312.25;;;4.77;89.73
71239;BME280;61342;51.442;7.370;2023-04-26T05:18:41;100319.53;;;4.78;89.90
71239;BME280;61342;51.442;7.370;2023-04-26T05:19:42;100316.50;;;4.82;90.01
71239;BME280;61342;51.442;7.370;2023-04-26T05:20:42;100320.94;;;4.83;89.89